createdAt,value
2022-11-16T00:00:44.287Z,1003.55
2022-11-16T00:01:43.293Z,1003.53
2022-11-16T00:02:43.260Z,1003.51
2022-11-16T00:03:44.260Z,1003.49
2022-11-16T00:04:43.270Z,1003.43
2022-11-16T00:05:44.233Z,1003.45
2022-11-16T00:06:43.212Z,1003.42
2022-11-16T00:07:43.218Z,1003.43
2022-11-16T00:08:44.220Z,1003.37
2022-11-16T00:09:43.222Z,1003.38
2022-11-16T00:10:44.234Z,1003.37
2022-11-16T00:11:43.184Z,1003.41
2022-11-16T00:12:43.186Z,1003.40
2022-11-16T00:13:44.190Z,1003.43
2022-11-16T00:14:43.168Z,1003.41
2022-11-16T00:15:44.161Z,1003.40
2022-11-16T00:16:43.143Z,1003.40
2022-11-16T00:17:43.162Z,1003.38
2022-11-16T00:18:44.160Z,1003.41
2022-11-16T00:19:43.140Z,1003.40
2022-11-16T00:20:44.145Z,1003.43
2022-11-16T00:21:43.117Z,1003.37
2022-11-16T00:22:43.125Z,1003.41
2022-11-16T00:23:44.118Z,1003.44
2022-11-16T00:24:43.085Z,1003.39
2022-11-16T00:25:44.105Z,1003.37
2022-11-16T00:26:43.088Z,1003.38
2022-11-16T00:27:43.091Z,1003.42
2022-11-16T00:28:44.069Z,1003.41
2022-11-16T00:29:43.058Z,1003.39
2022-11-16T00:30:44.064Z,1003.39
2022-11-16T00:31:43.048Z,1003.42
2022-11-16T00:32:43.040Z,1003.42
2022-11-16T00:33:44.062Z,1003.38
2022-11-16T00:34:43.030Z,1003.42
2022-11-16T00:35:44.042Z,1003.36
2022-11-16T00:36:43.008Z,1003.38
2022-11-16T00:37:43.071Z,1003.39
2022-11-16T00:38:44.007Z,1003.39
2022-11-16T00:39:42.997Z,1003.38
2022-11-16T00:40:43.986Z,1003.39
2022-11-16T00:41:42.987Z,1003.39
2022-11-16T00:42:42.983Z,1003.40
2022-11-16T00:43:43.999Z,1003.39
2022-11-16T00:44:42.952Z,1003.35
2022-11-16T00:45:43.959Z,1003.37
2022-11-16T00:46:42.946Z,1003.36
2022-11-16T00:47:42.955Z,1003.39
2022-11-16T00:48:43.940Z,1003.36
2022-11-16T00:49:42.930Z,1003.37
2022-11-16T00:50:43.924Z,1003.28
2022-11-16T00:51:42.913Z,1003.32
2022-11-16T00:52:42.893Z,1003.35
2022-11-16T00:53:43.913Z,1003.31
2022-11-16T00:54:42.886Z,1003.30
2022-11-16T00:55:43.897Z,1003.29
2022-11-16T00:56:42.864Z,1003.30
2022-11-16T00:57:42.856Z,1003.32
2022-11-16T00:58:43.922Z,1003.33
2022-11-16T00:59:42.848Z,1003.33
2022-11-16T01:00:43.874Z,1003.33
2022-11-16T01:01:42.910Z,1003.40
2022-11-16T01:02:42.854Z,1003.33
2022-11-16T01:03:43.852Z,1003.34
2022-11-16T01:04:42.832Z,1003.34
2022-11-16T01:05:43.829Z,1003.38
2022-11-16T01:06:42.800Z,1003.39
2022-11-16T01:07:42.798Z,1003.31
2022-11-16T01:08:43.793Z,1003.30
2022-11-16T01:09:42.777Z,1003.31
2022-11-16T01:10:43.767Z,1003.34
2022-11-16T01:11:42.782Z,1003.29
2022-11-16T01:12:42.778Z,1003.38
2022-11-16T01:13:43.787Z,1003.35
2022-11-16T01:14:42.730Z,1003.34
2022-11-16T01:15:43.764Z,1003.36
2022-11-16T01:16:42.723Z,1003.35
2022-11-16T01:17:42.736Z,1003.36
2022-11-16T01:18:43.749Z,1003.36
2022-11-16T01:19:42.705Z,1003.35
2022-11-16T01:20:43.706Z,1003.37
2022-11-16T01:21:42.715Z,1003.39
2022-11-16T01:22:42.685Z,1003.42
2022-11-16T01:23:43.715Z,1003.39
2022-11-16T01:24:42.691Z,1003.42
2022-11-16T01:25:43.689Z,1003.39
2022-11-16T01:26:42.686Z,1003.42
2022-11-16T01:27:42.643Z,1003.46
2022-11-16T01:28:43.648Z,1003.44
2022-11-16T01:29:42.666Z,1003.48
2022-11-16T01:30:43.637Z,1003.46
2022-11-16T01:31:42.632Z,1003.45
2022-11-16T01:32:42.642Z,1003.46
2022-11-16T01:33:43.660Z,1003.43
2022-11-16T01:34:42.594Z,1003.40
2022-11-16T01:35:43.624Z,1003.42
2022-11-16T01:36:42.601Z,1003.43
2022-11-16T01:37:42.575Z,1003.39
2022-11-16T01:38:43.657Z,1003.38
2022-11-16T01:39:42.595Z,1003.31
2022-11-16T01:40:43.568Z,1003.32
2022-11-16T01:41:42.579Z,1003.26
2022-11-16T01:42:42.534Z,1003.25
2022-11-16T01:43:43.546Z,1003.19
2022-11-16T01:44:42.537Z,1003.17
2022-11-16T01:45:43.528Z,1003.18
2022-11-16T01:46:42.529Z,1003.14
2022-11-16T01:47:42.529Z,1003.13
2022-11-16T01:48:43.563Z,1003.09
2022-11-16T01:49:42.499Z,1003.06
2022-11-16T01:50:43.516Z,1003.11
2022-11-16T01:51:42.490Z,1003.02
2022-11-16T01:52:42.469Z,1003.06
2022-11-16T01:53:43.484Z,1003.03
2022-11-16T01:54:42.466Z,1003.05
2022-11-16T01:55:43.495Z,1003.03
2022-11-16T01:56:42.451Z,1003.05
2022-11-16T01:57:42.463Z,1003.05
2022-11-16T01:58:43.458Z,1003.03
2022-11-16T01:59:42.432Z,1003.04
2022-11-16T02:00:43.475Z,1003.00
2022-11-16T02:01:42.458Z,1003.00
2022-11-16T02:02:42.423Z,1003.01
2022-11-16T02:03:43.406Z,1002.97
2022-11-16T02:04:42.395Z,1002.98
2022-11-16T02:05:43.429Z,1002.91
2022-11-16T02:06:42.379Z,1002.90
2022-11-16T02:07:42.382Z,1002.94
2022-11-16T02:08:43.372Z,1002.98
2022-11-16T02:09:42.368Z,1002.92
2022-11-16T02:10:43.350Z,1002.87
2022-11-16T02:11:42.384Z,1002.89
2022-11-16T02:12:42.346Z,1002.87
2022-11-16T02:13:43.348Z,1002.83
2022-11-16T02:14:42.343Z,1002.82
2022-11-16T02:15:43.333Z,1002.79
2022-11-16T02:16:42.293Z,1002.78
2022-11-16T02:17:42.328Z,1002.73
2022-11-16T02:18:43.289Z,1002.68
2022-11-16T02:19:42.328Z,1002.70
2022-11-16T02:20:43.288Z,1002.65
2022-11-16T02:21:42.294Z,1002.64
2022-11-16T02:22:42.276Z,1002.68
2022-11-16T02:23:43.323Z,1002.63
2022-11-16T02:24:42.264Z,1002.62
2022-11-16T02:25:43.339Z,1002.62
2022-11-16T02:26:42.243Z,1002.65
2022-11-16T02:27:42.256Z,1002.65
2022-11-16T02:28:43.239Z,1002.63
2022-11-16T02:29:42.234Z,1002.61
2022-11-16T02:30:43.228Z,1002.57
2022-11-16T02:31:42.204Z,1002.60
2022-11-16T02:32:42.195Z,1002.54
2022-11-16T02:33:43.231Z,1002.53
2022-11-16T02:34:42.213Z,1002.54
2022-11-16T02:35:43.207Z,1002.52
2022-11-16T02:36:42.158Z,1002.53
2022-11-16T02:37:42.179Z,1002.51
2022-11-16T02:38:43.171Z,1002.47
2022-11-16T02:39:42.158Z,1002.45
2022-11-16T02:40:43.179Z,1002.51
2022-11-16T02:41:42.174Z,1002.46
2022-11-16T02:42:42.121Z,1002.42
2022-11-16T02:43:43.146Z,1002.42
2022-11-16T02:44:42.132Z,1002.45
2022-11-16T02:45:43.132Z,1002.43
2022-11-16T02:46:42.104Z,1002.44
2022-11-16T02:47:42.102Z,1002.40
2022-11-16T02:48:43.110Z,1002.40
2022-11-16T02:49:42.147Z,1002.40
2022-11-16T02:50:43.091Z,1002.41
2022-11-16T02:51:42.080Z,1002.36
2022-11-16T02:52:42.059Z,1002.32
2022-11-16T02:53:43.062Z,1002.39
2022-11-16T02:54:42.045Z,1002.40
2022-11-16T02:55:43.068Z,1002.34
2022-11-16T02:56:42.036Z,1002.37
2022-11-16T02:57:42.029Z,1002.37
2022-11-16T02:58:43.072Z,1002.40
2022-11-16T02:59:42.036Z,1002.40
2022-11-16T03:00:43.054Z,1002.40
2022-11-16T03:01:42.016Z,1002.41
2022-11-16T03:02:41.971Z,1002.38
2022-11-16T03:03:43.010Z,1002.42
2022-11-16T03:04:41.976Z,1002.40
2022-11-16T03:05:42.969Z,1002.39
2022-11-16T03:06:41.948Z,1002.42
2022-11-16T03:07:41.973Z,1002.39
2022-11-16T03:08:42.959Z,1002.40
2022-11-16T03:09:41.968Z,1002.39
2022-11-16T03:10:42.971Z,1002.39
2022-11-16T03:11:41.927Z,1002.40
2022-11-16T03:12:41.990Z,1002.43
2022-11-16T03:13:42.931Z,1002.42
2022-11-16T03:14:41.899Z,1002.47
2022-11-16T03:15:42.907Z,1002.45
2022-11-16T03:16:41.897Z,1002.48
2022-11-16T03:17:41.921Z,1002.47
2022-11-16T03:18:42.896Z,1002.53
2022-11-16T03:19:41.893Z,1002.53
2022-11-16T03:20:42.871Z,1002.46
2022-11-16T03:21:41.871Z,1002.47
2022-11-16T03:22:41.843Z,1002.52
2022-11-16T03:23:42.862Z,1002.52
2022-11-16T03:24:41.854Z,1002.53
2022-11-16T03:25:42.838Z,1002.48
2022-11-16T03:26:41.814Z,1002.51
2022-11-16T03:27:41.824Z,1002.50
2022-11-16T03:28:42.835Z,1002.48
2022-11-16T03:29:41.810Z,1002.51
2022-11-16T03:30:42.814Z,1002.46
2022-11-16T03:31:41.789Z,1002.43
2022-11-16T03:32:41.767Z,1002.43
2022-11-16T03:33:42.784Z,1002.43
2022-11-16T03:34:41.774Z,1002.41
2022-11-16T03:35:42.770Z,1002.40
2022-11-16T03:36:41.751Z,1002.39
2022-11-16T03:37:41.738Z,1002.36
2022-11-16T03:38:42.757Z,1002.38
2022-11-16T03:39:41.741Z,1002.32
2022-11-16T03:40:42.730Z,1002.31
2022-11-16T03:41:41.720Z,1002.32
2022-11-16T03:42:41.713Z,1002.35
2022-11-16T03:43:42.723Z,1002.35
2022-11-16T03:44:41.679Z,1002.35
2022-11-16T03:45:42.708Z,1002.33
2022-11-16T03:46:41.673Z,1002.32
2022-11-16T03:47:41.671Z,1002.29
2022-11-16T03:48:42.685Z,1002.31
2022-11-16T03:49:41.653Z,1002.28
2022-11-16T03:50:42.665Z,1002.28
2022-11-16T03:51:41.655Z,1002.29
2022-11-16T03:52:41.628Z,1002.25
2022-11-16T03:53:42.656Z,1002.30
2022-11-16T03:54:41.609Z,1002.26
2022-11-16T03:55:47.024Z,1002.24
2022-11-16T03:56:41.614Z,1002.20
2022-11-16T03:57:41.605Z,1002.17
2022-11-16T03:58:42.626Z,1002.15
2022-11-16T03:59:41.592Z,1002.21
2022-11-16T04:00:42.620Z,1002.18
2022-11-16T04:01:44.758Z,1002.17
2022-11-16T04:02:41.573Z,1002.15
2022-11-16T04:03:42.583Z,1002.18
2022-11-16T04:04:41.558Z,1002.17
2022-11-16T04:05:42.554Z,1002.11
2022-11-16T04:06:41.574Z,1002.11
2022-11-16T04:07:41.579Z,1002.11
2022-11-16T04:08:42.564Z,1002.12
2022-11-16T04:09:41.537Z,1002.10
2022-11-16T04:10:42.524Z,1002.04
2022-11-16T04:11:41.500Z,1002.08
2022-11-16T04:12:41.509Z,1002.08
2022-11-16T04:13:42.498Z,1002.08
2022-11-16T04:14:41.505Z,1002.09
2022-11-16T04:15:42.486Z,1002.08
2022-11-16T04:16:41.470Z,1002.06
2022-11-16T04:17:41.449Z,1002.05
2022-11-16T04:18:42.484Z,1002.05
2022-11-16T04:19:41.434Z,1002.04
2022-11-16T04:20:42.458Z,1002.03
2022-11-16T04:21:41.455Z,1001.99
2022-11-16T04:22:41.428Z,1001.97
2022-11-16T04:23:42.430Z,1001.98
2022-11-16T04:24:41.446Z,1002.00
2022-11-16T04:25:42.428Z,1001.99
2022-11-16T04:26:41.410Z,1001.96
2022-11-16T04:27:41.392Z,1001.98
2022-11-16T04:28:42.408Z,1002.01
2022-11-16T04:29:41.396Z,1002.00
2022-11-16T04:30:42.408Z,1002.03
2022-11-16T04:31:41.413Z,1002.06
2022-11-16T04:32:41.355Z,1002.06
2022-11-16T04:33:42.405Z,1002.08
2022-11-16T04:34:41.343Z,1002.04
2022-11-16T04:35:42.349Z,1002.04
2022-11-16T04:36:41.358Z,1002.00
2022-11-16T04:37:41.323Z,1001.93
2022-11-16T04:38:42.358Z,1001.94
2022-11-16T04:39:41.303Z,1002.03
2022-11-16T04:40:42.368Z,1001.99
2022-11-16T04:41:41.288Z,1001.96
2022-11-16T04:42:41.275Z,1001.93
2022-11-16T04:43:42.299Z,1001.90
2022-11-16T04:44:41.266Z,1001.84
2022-11-16T04:45:42.280Z,1001.91
2022-11-16T04:46:41.275Z,1001.89
2022-11-16T04:47:41.244Z,1001.89
2022-11-16T04:48:42.258Z,1001.94
2022-11-16T04:49:41.212Z,1001.93
2022-11-16T04:50:42.266Z,1001.89
2022-11-16T04:51:41.217Z,1001.93
2022-11-16T04:52:41.223Z,1001.90
2022-11-16T04:53:42.220Z,1001.93
2022-11-16T04:54:41.202Z,1001.98
2022-11-16T04:55:42.216Z,1001.96
2022-11-16T04:56:41.174Z,1001.95
2022-11-16T04:57:41.178Z,1001.94
2022-11-16T04:58:42.191Z,1001.98
2022-11-16T04:59:41.166Z,1001.96
2022-11-16T05:00:42.170Z,1001.97
2022-11-16T05:01:41.200Z,1001.92
2022-11-16T05:02:41.150Z,1001.92
2022-11-16T05:03:42.290Z,1001.92
2022-11-16T05:04:41.144Z,1001.85
2022-11-16T05:05:42.118Z,1001.80
2022-11-16T05:06:41.115Z,1001.83
2022-11-16T05:07:41.098Z,1001.81
2022-11-16T05:08:42.118Z,1001.79
2022-11-16T05:09:41.090Z,1001.74
2022-11-16T05:10:42.111Z,1001.79
2022-11-16T05:11:41.096Z,1001.81
2022-11-16T05:12:41.079Z,1001.78
2022-11-16T05:13:42.072Z,1001.81
2022-11-16T05:14:41.085Z,1001.84
2022-11-16T05:15:42.104Z,1001.83
2022-11-16T05:16:41.045Z,1001.86
2022-11-16T05:17:41.041Z,1001.85
2022-11-16T05:18:42.051Z,1001.89
2022-11-16T05:19:41.027Z,1001.85
2022-11-16T05:20:42.047Z,1001.89
2022-11-16T05:21:41.013Z,1001.90
2022-11-16T05:22:41.012Z,1001.94
2022-11-16T05:23:42.000Z,1001.89
2022-11-16T05:24:41.000Z,1001.94
2022-11-16T05:25:41.988Z,1001.88
2022-11-16T05:26:40.963Z,1001.86
2022-11-16T05:27:40.954Z,1001.87
2022-11-16T05:28:41.984Z,1001.90
2022-11-16T05:29:40.940Z,1001.84
2022-11-16T05:30:41.973Z,1001.85
2022-11-16T05:31:40.935Z,1001.86
2022-11-16T05:32:40.949Z,1001.89
2022-11-16T05:33:41.935Z,1001.88
2022-11-16T05:34:40.919Z,1001.94
2022-11-16T05:35:41.935Z,1001.92
2022-11-16T05:36:40.907Z,1001.95
2022-11-16T05:37:40.902Z,1001.95
2022-11-16T05:38:41.912Z,1002.03
2022-11-16T05:39:40.879Z,1002.02
2022-11-16T05:40:41.900Z,1002.03
2022-11-16T05:41:40.869Z,1002.04
2022-11-16T05:42:40.874Z,1002.05
2022-11-16T05:43:41.881Z,1002.06
2022-11-16T05:44:40.856Z,1002.09
2022-11-16T05:45:41.855Z,1002.09
2022-11-16T05:46:40.856Z,1002.09
2022-11-16T05:47:40.826Z,1002.10
2022-11-16T05:48:41.847Z,1002.07
2022-11-16T05:49:40.832Z,1002.10
2022-11-16T05:50:43.220Z,1002.10
2022-11-16T05:51:40.803Z,1002.11
2022-11-16T05:52:40.813Z,1002.16
2022-11-16T05:53:41.788Z,1002.09
2022-11-16T05:54:40.822Z,1002.09
2022-11-16T05:55:41.805Z,1002.09
2022-11-16T05:56:40.788Z,1002.13
2022-11-16T05:57:40.745Z,1002.09
2022-11-16T05:58:41.770Z,1002.08
2022-11-16T05:59:40.754Z,1002.08
2022-11-16T06:00:41.752Z,1002.09
2022-11-16T06:01:40.733Z,1002.08
2022-11-16T06:02:40.795Z,1002.09
2022-11-16T06:03:41.732Z,1002.07
2022-11-16T06:04:40.725Z,1002.09
2022-11-16T06:05:41.715Z,1002.03
2022-11-16T06:06:40.705Z,1002.03
2022-11-16T06:07:40.685Z,1002.09
2022-11-16T06:08:41.697Z,1002.10
2022-11-16T06:09:40.665Z,1002.14
2022-11-16T06:10:41.684Z,1002.18
2022-11-16T06:11:40.675Z,1002.17
2022-11-16T06:12:40.651Z,1002.17
2022-11-16T06:13:41.655Z,1002.18
2022-11-16T06:14:40.652Z,1002.20
2022-11-16T06:15:41.648Z,1002.16
2022-11-16T06:16:40.782Z,1002.18
2022-11-16T06:17:40.631Z,1002.17
2022-11-16T06:18:41.642Z,1002.14
2022-11-16T06:19:40.616Z,1002.17
2022-11-16T06:20:41.621Z,1002.17
2022-11-16T06:21:40.619Z,1002.15
2022-11-16T06:22:40.605Z,1002.17
2022-11-16T06:23:41.586Z,1002.16
2022-11-16T06:24:40.576Z,1002.13
2022-11-16T06:25:41.578Z,1002.14
2022-11-16T06:26:40.556Z,1002.13
2022-11-16T06:27:40.575Z,1002.18
2022-11-16T06:28:41.592Z,1002.16
2022-11-16T06:29:40.546Z,1002.14
2022-11-16T06:30:41.591Z,1002.14
2022-11-16T06:31:40.527Z,1002.14
2022-11-16T06:32:40.606Z,1002.18
2022-11-16T06:33:41.535Z,1002.20
2022-11-16T06:34:40.517Z,1002.17
2022-11-16T06:35:41.567Z,1002.17
2022-11-16T06:36:40.495Z,1002.21
2022-11-16T06:37:40.481Z,1002.23
2022-11-16T06:38:41.528Z,1002.26
2022-11-16T06:39:40.474Z,1002.26
2022-11-16T06:40:41.514Z,1002.28
2022-11-16T06:41:41.672Z,1002.28
2022-11-16T06:42:40.486Z,1002.28
2022-11-16T06:43:41.467Z,1002.27
2022-11-16T06:44:40.447Z,1002.27
2022-11-16T06:45:41.443Z,1002.27
2022-11-16T06:46:40.431Z,1002.28
2022-11-16T06:47:40.472Z,1002.24
2022-11-16T06:48:41.457Z,1002.27
2022-11-16T06:49:40.413Z,1002.26
2022-11-16T06:50:41.443Z,1002.25
2022-11-16T06:51:40.427Z,1002.23
2022-11-16T06:52:40.391Z,1002.23
2022-11-16T06:53:41.388Z,1002.23
2022-11-16T06:54:40.381Z,1002.24
2022-11-16T06:55:41.385Z,1002.24
2022-11-16T06:56:40.362Z,1002.28
2022-11-16T06:57:40.360Z,1002.29
2022-11-16T06:58:42.921Z,1002.33
2022-11-16T06:59:40.363Z,1002.29
2022-11-16T07:00:41.382Z,1002.29
2022-11-16T07:01:40.397Z,1002.32
2022-11-16T07:02:40.326Z,1002.32
2022-11-16T07:03:41.330Z,1002.30
2022-11-16T07:04:40.302Z,1002.33
2022-11-16T07:05:41.334Z,1002.34
2022-11-16T07:06:40.296Z,1002.33
2022-11-16T07:07:40.292Z,1002.37
2022-11-16T07:08:41.329Z,1002.37
2022-11-16T07:09:40.311Z,1002.40
2022-11-16T07:10:41.296Z,1002.38
2022-11-16T07:11:40.277Z,1002.35
2022-11-16T07:12:40.277Z,1002.33
2022-11-16T07:13:41.335Z,1002.32
2022-11-16T07:14:40.279Z,1002.32
2022-11-16T07:15:41.275Z,1002.33
2022-11-16T07:16:40.242Z,1002.35
2022-11-16T07:17:40.237Z,1002.34
2022-11-16T07:18:41.249Z,1002.27
2022-11-16T07:19:40.205Z,1002.28
2022-11-16T07:20:41.232Z,1002.31
2022-11-16T07:21:40.219Z,1002.27
2022-11-16T07:22:40.207Z,1002.29
2022-11-16T07:23:41.225Z,1002.29
2022-11-16T07:24:40.206Z,1002.27
2022-11-16T07:25:41.212Z,1002.26
2022-11-16T07:26:40.232Z,1002.31
2022-11-16T07:27:40.163Z,1002.34
2022-11-16T07:28:47.720Z,1002.34
2022-11-16T07:29:40.252Z,1002.34
2022-11-16T07:30:41.171Z,1002.33
2022-11-16T07:31:40.155Z,1002.35
2022-11-16T07:32:40.171Z,1002.37
2022-11-16T07:33:41.126Z,1002.36
2022-11-16T07:34:40.135Z,1002.40
2022-11-16T07:35:41.157Z,1002.41
2022-11-16T07:36:40.100Z,1002.40
2022-11-16T07:37:40.105Z,1002.40
2022-11-16T07:38:41.129Z,1002.41
2022-11-16T07:39:40.084Z,1002.39
2022-11-16T07:40:41.140Z,1002.43
2022-11-16T07:41:40.061Z,1002.39
2022-11-16T07:42:40.073Z,1002.48
2022-11-16T07:43:41.081Z,1002.44
2022-11-16T07:44:40.063Z,1002.45
2022-11-16T07:45:41.059Z,1002.43
2022-11-16T07:46:48.325Z,1002.43
2022-11-16T07:47:40.077Z,1002.43
2022-11-16T07:48:41.050Z,1002.41
2022-11-16T07:49:40.037Z,1002.38
2022-11-16T07:50:41.043Z,1002.44
2022-11-16T07:51:40.017Z,1002.46
2022-11-16T07:52:40.098Z,1002.48
2022-11-16T07:53:41.004Z,1002.48
2022-11-16T07:54:40.013Z,1002.48
2022-11-16T07:55:41.012Z,1002.47
2022-11-16T07:56:40.032Z,1002.50
2022-11-16T07:57:39.958Z,1002.51
2022-11-16T07:58:40.986Z,1002.50
2022-11-16T07:59:39.961Z,1002.48
2022-11-16T08:00:40.982Z,1002.50
2022-11-16T08:01:40.037Z,1002.53
2022-11-16T08:02:40.653Z,1002.50
2022-11-16T08:03:40.968Z,1002.48
2022-11-16T08:04:39.944Z,1002.43
2022-11-16T08:05:40.930Z,1002.50
2022-11-16T08:06:40.556Z,1002.49
2022-11-16T08:07:39.958Z,1002.52
2022-11-16T08:08:41.632Z,1002.47
2022-11-16T08:09:40.709Z,1002.47
2022-11-16T08:10:41.588Z,1002.45
2022-11-16T08:11:39.877Z,1002.46
2022-11-16T08:12:41.183Z,1002.47
2022-11-16T08:13:40.889Z,1002.41
2022-11-16T08:14:40.576Z,1002.45
2022-11-16T08:15:40.876Z,1002.41
2022-11-16T08:16:39.847Z,1002.43
2022-11-16T08:17:41.117Z,1002.41
2022-11-16T08:18:41.553Z,1002.44
2022-11-16T08:19:40.555Z,1002.41
2022-11-16T08:20:40.853Z,1002.44
2022-11-16T08:21:39.825Z,1002.38
2022-11-16T08:22:39.856Z,1002.47
2022-11-16T08:23:41.567Z,1002.45
2022-11-16T08:24:39.797Z,1002.39
2022-11-16T08:25:40.804Z,1002.41
2022-11-16T08:26:39.782Z,1002.45
2022-11-16T08:27:39.776Z,1002.41
2022-11-16T08:28:40.796Z,1002.36
2022-11-16T08:29:39.759Z,1002.30
2022-11-16T08:30:40.763Z,1002.34
2022-11-16T08:31:39.763Z,1002.32
2022-11-16T08:32:39.749Z,1002.31
2022-11-16T08:33:40.755Z,1002.25
2022-11-16T08:34:39.727Z,1002.29
2022-11-16T08:35:40.738Z,1002.25
2022-11-16T08:36:39.721Z,1002.23
2022-11-16T08:37:39.751Z,1002.24
2022-11-16T08:38:40.727Z,1002.22
2022-11-16T08:39:39.724Z,1002.21
2022-11-16T08:40:40.695Z,1002.26
2022-11-16T08:41:39.682Z,1002.22
2022-11-16T08:42:43.534Z,1002.28
2022-11-16T08:43:40.719Z,1002.18
2022-11-16T08:44:39.662Z,1002.21
2022-11-16T08:45:40.711Z,1002.25
2022-11-16T08:46:39.723Z,1002.20
2022-11-16T08:47:39.689Z,1002.28
2022-11-16T08:48:40.660Z,1002.22
2022-11-16T08:49:39.637Z,1002.22
2022-11-16T08:51:02.329Z,1002.21
2022-11-16T08:51:39.644Z,1002.22
2022-11-16T08:52:39.628Z,1002.16
2022-11-16T08:53:40.646Z,1002.18
2022-11-16T08:54:39.603Z,1002.15
2022-11-16T08:55:40.631Z,1002.15
2022-11-16T08:56:39.593Z,1002.07
2022-11-16T08:57:39.608Z,1002.05
2022-11-16T08:58:40.567Z,1002.03
2022-11-16T08:59:39.565Z,1002.03
2022-11-16T09:00:40.603Z,1001.94
2022-11-16T09:01:39.579Z,1001.98
2022-11-16T09:02:39.557Z,1001.97
2022-11-16T09:03:40.566Z,1001.92
2022-11-16T09:04:39.566Z,1001.95
2022-11-16T09:05:41.061Z,1001.93
2022-11-16T09:06:39.549Z,1001.96
2022-11-16T09:07:39.564Z,1001.91
2022-11-16T09:08:40.536Z,1001.94
2022-11-16T09:09:39.514Z,1001.93
2022-11-16T09:10:40.534Z,1001.91
2022-11-16T09:11:39.524Z,1001.93
2022-11-16T09:12:39.493Z,1001.90
2022-11-16T09:13:40.509Z,1001.92
2022-11-16T09:14:39.465Z,1001.90
2022-11-16T09:15:40.483Z,1001.85
2022-11-16T09:16:39.445Z,1001.90
2022-11-16T09:17:39.457Z,1001.89
2022-11-16T09:18:40.444Z,1001.91
2022-11-16T09:19:39.559Z,1001.87
2022-11-16T09:20:40.462Z,1001.82
2022-11-16T09:21:39.443Z,1001.89
2022-11-16T09:22:39.439Z,1001.84
2022-11-16T09:23:40.418Z,1001.84
2022-11-16T09:24:39.409Z,1001.83
2022-11-16T09:25:40.404Z,1001.82
2022-11-16T09:26:39.404Z,1001.77
2022-11-16T09:27:39.417Z,1001.80
2022-11-16T09:28:40.392Z,1001.80
2022-11-16T09:29:39.407Z,1001.83
2022-11-16T09:30:40.426Z,1001.85
2022-11-16T09:31:39.378Z,1001.81
2022-11-16T09:32:39.359Z,1001.80
2022-11-16T09:33:40.369Z,1001.79
2022-11-16T09:34:39.341Z,1001.83
2022-11-16T09:35:40.360Z,1001.78
2022-11-16T09:36:39.314Z,1001.76
2022-11-16T09:37:41.099Z,1001.76
2022-11-16T09:39:05.600Z,1001.78
2022-11-16T09:39:39.324Z,1001.76
2022-11-16T09:40:40.317Z,1001.75
2022-11-16T09:41:39.298Z,1001.72
2022-11-16T09:42:39.314Z,1001.72
2022-11-16T09:43:45.569Z,1001.78
2022-11-16T09:44:39.269Z,1001.75
2022-11-16T09:45:40.293Z,1001.80
2022-11-16T09:46:39.248Z,1001.76
2022-11-16T09:47:39.271Z,1001.79
2022-11-16T09:48:40.236Z,1001.79
2022-11-16T09:49:39.242Z,1001.79
2022-11-16T09:50:40.267Z,1001.82
2022-11-16T09:51:39.240Z,1001.75
2022-11-16T09:52:39.243Z,1001.76
2022-11-16T09:53:40.242Z,1001.76
2022-11-16T09:54:39.192Z,1001.76
2022-11-16T09:55:40.243Z,1001.72
2022-11-16T09:56:39.232Z,1001.72
2022-11-16T09:57:39.180Z,1001.72
2022-11-16T09:58:40.258Z,1001.70
2022-11-16T09:59:39.188Z,1001.74
2022-11-16T10:00:40.220Z,1001.70
2022-11-16T10:01:39.151Z,1001.70
2022-11-16T10:02:40.644Z,1001.68
2022-11-16T10:03:40.168Z,1001.71
2022-11-16T10:04:39.147Z,1001.68
2022-11-16T10:05:40.140Z,1001.78
2022-11-16T10:06:39.150Z,1001.76
2022-11-16T10:07:39.184Z,1001.76
2022-11-16T10:08:40.141Z,1001.74
2022-11-16T10:09:39.724Z,1001.74
2022-11-16T10:10:40.108Z,1001.70
2022-11-16T10:11:39.720Z,1001.71
2022-11-16T10:12:39.692Z,1001.75
2022-11-16T10:13:40.134Z,1001.75
2022-11-16T10:14:39.695Z,1001.67
2022-11-16T10:15:40.714Z,1001.66
2022-11-16T10:16:39.699Z,1001.64
2022-11-16T10:17:39.674Z,1001.60
2022-11-16T10:18:40.681Z,1001.57
2022-11-16T10:19:39.663Z,1001.55
2022-11-16T10:20:40.036Z,1001.56
2022-11-16T10:21:39.648Z,1001.56
2022-11-16T10:22:39.021Z,1001.57
2022-11-16T10:23:40.644Z,1001.54
2022-11-16T10:24:39.030Z,1001.54
2022-11-16T10:25:40.625Z,1001.50
2022-11-16T10:26:39.000Z,1001.47
2022-11-16T10:27:38.994Z,1001.50
2022-11-16T10:28:39.985Z,1001.44
2022-11-16T10:29:39.018Z,1001.39
2022-11-16T10:30:40.014Z,1001.40
2022-11-16T10:31:38.986Z,1001.37
2022-11-16T10:32:38.965Z,1001.38
2022-11-16T10:33:39.972Z,1001.45
2022-11-16T10:34:38.975Z,1001.41
2022-11-16T10:35:39.986Z,1001.40
2022-11-16T10:36:38.959Z,1001.42
2022-11-16T10:37:38.944Z,1001.44
2022-11-16T10:38:39.951Z,1001.42
2022-11-16T10:39:38.922Z,1001.42
2022-11-16T10:40:39.908Z,1001.46
2022-11-16T10:41:38.926Z,1001.42
2022-11-16T10:42:38.897Z,1001.42
2022-11-16T10:43:39.889Z,1001.41
2022-11-16T10:44:38.876Z,1001.43
2022-11-16T10:45:39.891Z,1001.39
2022-11-16T10:46:38.887Z,1001.27
2022-11-16T10:47:38.849Z,1001.46
2022-11-16T10:48:39.860Z,1001.40
2022-11-16T10:49:38.851Z,1001.45
2022-11-16T10:50:39.885Z,1001.44
2022-11-16T10:51:38.855Z,1001.48
2022-11-16T10:52:38.848Z,1001.44
2022-11-16T10:53:39.830Z,1001.36
2022-11-16T10:54:43.931Z,1001.36
2022-11-16T10:55:39.836Z,1001.43
2022-11-16T10:56:38.793Z,1001.44
2022-11-16T10:57:38.791Z,1001.43
2022-11-16T10:58:39.808Z,1001.47
2022-11-16T10:59:38.775Z,1001.48
2022-11-16T11:00:39.863Z,1001.48
2022-11-16T11:01:38.789Z,1001.49
2022-11-16T11:02:38.751Z,1001.46
2022-11-16T11:03:39.761Z,1001.50
2022-11-16T11:04:38.809Z,1001.52
2022-11-16T11:05:39.742Z,1001.46
2022-11-16T11:06:38.761Z,1001.47
2022-11-16T11:07:38.785Z,1001.46
2022-11-16T11:08:39.707Z,1001.46
2022-11-16T11:09:38.713Z,1001.50
2022-11-16T11:10:39.719Z,1001.46
2022-11-16T11:11:38.706Z,1001.50
2022-11-16T11:12:38.698Z,1001.39
2022-11-16T11:13:39.701Z,1001.43
2022-11-16T11:14:38.674Z,1001.38
2022-11-16T11:15:39.708Z,1001.34
2022-11-16T11:16:38.655Z,1001.33
2022-11-16T11:17:39.323Z,1001.35
2022-11-16T11:18:39.663Z,1001.34
2022-11-16T11:19:38.639Z,1001.31
2022-11-16T11:20:44.461Z,1001.31
2022-11-16T11:21:39.208Z,1001.26
2022-11-16T11:22:38.622Z,1001.30
2022-11-16T11:23:39.645Z,1001.27
2022-11-16T11:24:44.572Z,1001.27
2022-11-16T11:25:39.636Z,1001.22
2022-11-16T11:26:38.607Z,1001.28
2022-11-16T11:27:38.618Z,1001.22
2022-11-16T11:28:39.595Z,1001.30
2022-11-16T11:29:38.581Z,1001.28
2022-11-16T11:30:39.573Z,1001.24
2022-11-16T11:31:38.574Z,1001.28
2022-11-16T11:32:38.547Z,1001.28
2022-11-16T11:33:39.563Z,1001.25
2022-11-16T11:34:38.542Z,1001.29
2022-11-16T11:35:39.554Z,1001.32
2022-11-16T11:36:38.536Z,1001.29
2022-11-16T11:37:38.539Z,1001.32
2022-11-16T11:38:39.563Z,1001.35
2022-11-16T11:39:39.208Z,1001.30
2022-11-16T11:40:39.514Z,1001.36
2022-11-16T11:41:39.090Z,1001.30
2022-11-16T11:42:38.490Z,1001.42
2022-11-16T11:43:39.503Z,1001.34
2022-11-16T11:44:38.480Z,1001.35
2022-11-16T11:45:39.543Z,1001.41
2022-11-16T11:47:28.513Z,1001.45
2022-11-16T11:48:39.469Z,1001.49
2022-11-16T11:49:38.438Z,1001.41
2022-11-16T11:50:39.431Z,1001.38
2022-11-16T11:51:38.464Z,1001.44
2022-11-16T11:52:38.426Z,1001.41
2022-11-16T11:53:39.435Z,1001.34
2022-11-16T11:54:41.750Z,1001.40
2022-11-16T11:55:39.405Z,1001.34
2022-11-16T11:56:38.418Z,1001.38
2022-11-16T11:57:38.403Z,1001.41
2022-11-16T11:58:39.389Z,1001.46
2022-11-16T11:59:38.382Z,1001.40
2022-11-16T12:00:39.365Z,1001.41
2022-11-16T12:01:38.414Z,1001.39
2022-11-16T12:02:39.759Z,1001.39
2022-11-16T12:03:39.393Z,1001.42
2022-11-16T12:04:38.353Z,1001.40
2022-11-16T12:05:39.364Z,1001.39
2022-11-16T12:06:43.744Z,1001.37